Time;durP1;ratioP1;P1;durP2;ratioP2;P2;SDS_P1;SDS_P2;PMS_P1;PMS_P2;Temp;Humidity;BMP_temperature;BMP_pressure;BME280_temperature;BME280_humidity;BME280_pressure;Samples;Min_cycle;Max_cycle;Signal;HPM_P1;HPM_P2
2022/03/13 00:02:47;;;;;;;2.80;2.30;;;;;10.50;100896.00;;;;10498057;28;20507;-77
2022/03/13 00:07:51;;;;;;;2.90;2.60;;;;;10.40;100894.00;;;;10540619;27;20247;-78
2022/03/13 00:12:54;;;;;;;3.43;2.20;;;;;10.40;100891.00;;;;10523373;27;20219;-77
2022/03/13 00:17:56;;;;;;;3.37;2.50;;;;;10.30;100881.00;;;;10540297;27;20253;-77
2022/03/13 00:22:58;;;;;;;2.87;2.43;;;;;10.20;100880.00;;;;10541478;27;20257;-77
2022/03/13 00:27:59;;;;;;;4.13;2.50;;;;;10.20;100876.00;;;;10537733;27;20208;-77
2022/03/13 00:33:01;;;;;;;3.00;2.70;;;;;10.20;100866.00;;;;10522717;28;20242;-77
2022/03/13 00:38:02;;;;;;;3.00;2.70;;;;;10.20;100860.00;;;;10521602;27;20250;-75
2022/03/13 00:43:04;;;;;;;3.63;2.97;;;;;10.10;100861.00;;;;10519382;28;20207;-78
2022/03/13 00:48:05;;;;;;;3.17;2.77;;;;;10.10;100864.00;;;;10537071;27;20329;-77
2022/03/13 00:53:07;;;;;;;3.27;2.80;;;;;10.10;100859.00;;;;10521908;27;20196;-75
2022/03/13 00:58:08;;;;;;;3.37;2.73;;;;;10.10;100863.00;;;;10535326;28;20204;-75
2022/03/13 01:03:28;;;;;;;4.50;2.70;;;;;10.10;100864.00;;;;10518819;28;20192;-75
2022/03/13 01:08:29;;;;;;;3.60;2.87;;;;;10.10;100872.00;;;;10493826;28;20256;-76
2022/03/13 01:13:31;;;;;;;3.70;3.10;;;;;10.10;100860.00;;;;10493773;28;20200;-76
2022/03/13 01:18:32;;;;;;;3.43;3.00;;;;;10.00;100850.00;;;;10492700;28;20235;-76
2022/03/13 01:23:33;;;;;;;3.80;2.57;;;;;10.00;100845.00;;;;10545226;27;20236;-76
2022/03/13 01:28:34;;;;;;;3.47;3.07;;;;;10.00;100833.00;;;;10500543;27;20208;-76
2022/03/13 01:33:36;;;;;;;2.93;2.67;;;;;10.00;100851.00;;;;10514148;28;20705;-76
2022/03/13 01:38:37;;;;;;;4.77;2.70;;;;;10.00;100836.00;;;;10476495;28;20224;-75
2022/03/13 01:43:38;;;;;;;3.80;3.10;;;;;10.00;100833.00;;;;10517885;27;20223;-76
2022/03/13 01:48:54;;;;;;;3.67;2.77;;;;;10.00;100830.00;;;;10532621;28;20231;-76
2022/03/13 01:53:58;;;;;;;3.50;2.60;;;;;9.90;100827.00;;;;10565579;28;20218;-76
2022/03/13 01:59:00;;;;;;;4.07;2.70;;;;;9.90;100827.00;;;;10549383;27;20199;-76
2022/03/13 02:04:01;;;;;;;3.53;3.13;;;;;9.90;100831.00;;;;10539287;27;20211;-76
2022/03/13 02:09:06;;;;;;;3.53;2.80;;;;;9.90;100831.00;;;;10576369;27;20211;-77
2022/03/13 02:14:10;;;;;;;3.33;3.00;;;;;9.90;100834.00;;;;10543772;27;20191;-76
2022/03/13 02:19:11;;;;;;;3.03;2.53;;;;;9.90;100829.00;;;;10559758;27;20596;-76
2022/03/13 02:24:17;;;;;;;4.30;3.33;;;;;9.90;100816.00;;;;10534353;27;20826;-76
2022/03/13 02:29:18;;;;;;;4.13;3.33;;;;;9.90;100811.00;;;;10531958;28;20210;-77
2022/03/13 02:34:20;;;;;;;4.70;3.37;;;;;9.90;100813.00;;;;10543689;28;20237;-75
2022/03/13 02:39:21;;;;;;;4.57;3.00;;;;;9.80;100810.00;;;;10530964;28;20230;-76
2022/03/13 02:44:22;;;;;;;4.93;3.60;;;;;9.80;100814.00;;;;10513475;27;20196;-75
2022/03/13 02:49:25;;;;;;;4.87;4.17;;;;;9.80;100805.00;;;;10549654;27;20254;-77
2022/03/13 02:54:28;;;;;;;6.63;3.67;;;;;9.80;100797.00;;;;10537050;27;20796;-76
2022/03/13 02:59:29;;;;;;;5.40;4.40;;;;;9.80;100782.00;;;;10481729;28;20274;-78
2022/03/13 03:04:31;;;;;;;6.13;3.83;;;;;9.80;100791.00;;;;10507025;28;20235;-76
2022/03/13 03:09:33;;;;;;;5.77;4.50;;;;;9.80;100796.00;;;;10555332;27;20203;-76
2022/03/13 03:14:35;;;;;;;3.90;3.50;;;;;9.80;100792.00;;;;10523688;27;20196;-75
2022/03/13 03:19:36;;;;;;;5.53;4.10;;;;;9.80;100789.00;;;;10523066;27;20219;-76
2022/03/13 03:24:38;;;;;;;4.87;4.30;;;;;9.70;100780.00;;;;10538871;27;20283;-75
2022/03/13 03:29:39;;;;;;;4.93;4.40;;;;;9.70;100784.00;;;;10538944;28;20219;-75
2022/03/13 03:34:40;;;;;;;5.90;4.70;;;;;9.70;100772.00;;;;10538879;28;20554;-76
2022/03/13 03:39:41;;;;;;;6.47;4.23;;;;;9.70;100775.00;;;;10522410;27;20230;-75
2022/03/13 03:44:43;;;;;;;5.20;4.30;;;;;9.60;100778.00;;;;10536186;28;20212;-75
2022/03/13 03:49:44;;;;;;;8.20;4.60;;;;;9.60;100775.00;;;;10538636;27;20220;-76
2022/03/13 03:54:47;;;;;;;5.87;4.83;;;;;9.60;100779.00;;;;10521588;27;20624;-75
2022/03/13 03:59:49;;;;;;;6.70;5.40;;;;;9.60;100784.00;;;;10521668;27;20200;-76
2022/03/13 04:04:50;;;;;;;7.03;5.30;;;;;9.70;100786.00;;;;10532821;27;20210;-76
2022/03/13 04:09:51;;;;;;;6.93;5.57;;;;;9.70;100784.00;;;;10579618;27;20685;-75
2022/03/13 04:14:53;;;;;;;9.47;6.40;;;;;9.70;100777.00;;;;10580169;27;20191;-76
2022/03/13 04:19:54;;;;;;;8.47;5.50;;;;;9.60;100774.00;;;;10559155;27;20218;-76
2022/03/13 04:24:55;;;;;;;7.77;6.70;;;;;9.60;100770.00;;;;10526226;27;20265;-75
2022/03/13 04:29:56;;;;;;;8.70;6.07;;;;;9.60;100759.00;;;;10536112;27;20223;-76
2022/03/13 04:34:57;;;;;;;11.13;6.93;;;;;9.60;100754.00;;;;10506081;28;20228;-76
2022/03/13 04:39:58;;;;;;;9.60;6.00;;;;;9.50;100760.00;;;;10504684;28;20220;-75
2022/03/13 04:45:01;;;;;;;9.13;7.60;;;;;9.40;100750.00;;;;10523079;28;20741;-75
2022/03/13 04:50:03;;;;;;;11.70;8.17;;;;;9.30;100747.00;;;;10539344;27;20239;-75
2022/03/13 04:55:05;;;;;;;12.40;8.13;;;;;9.20;100736.00;;;;10518500;27;20613;-75
2022/03/13 05:00:07;;;;;;;10.03;7.77;;;;;9.20;100730.00;;;;10517565;27;20199;-75
2022/03/13 05:05:09;;;;;;;11.80;9.00;;;;;9.20;100724.00;;;;10566181;27;20200;-75
2022/03/13 05:10:10;;;;;;;11.70;8.77;;;;;9.10;100711.00;;;;10560937;27;20219;-75
2022/03/13 05:15:12;;;;;;;11.37;9.50;;;;;9.10;100703.00;;;;10572964;27;20193;-76
2022/03/13 05:20:13;;;;;;;12.30;9.10;;;;;9.10;100704.00;;;;10515500;28;20257;-75
2022/03/13 05:25:15;;;;;;;12.67;10.23;;;;;9.00;100693.00;;;;10517926;27;20239;-75
2022/03/13 05:30:17;;;;;;;13.50;10.53;;;;;8.90;100702.00;;;;10549251;28;20306;-76
2022/03/13 05:35:18;;;;;;;15.77;10.87;;;;;8.90;100698.00;;;;10551127;27;20195;-75
2022/03/13 05:40:21;;;;;;;16.70;11.70;;;;;8.80;100698.00;;;;10576618;27;20215;-76
2022/03/13 05:45:24;;;;;;;15.70;10.87;;;;;8.60;100706.00;;;;10535492;28;20218;-75
2022/03/13 05:50:29;;;;;;;15.47;11.10;;;;;8.50;100700.00;;;;10532034;28;20204;-75
2022/03/13 05:55:30;;;;;;;16.43;12.63;;;;;8.50;100708.00;;;;10516071;28;20192;-76
2022/03/13 06:00:32;;;;;;;18.23;12.80;;;;;8.40;100711.00;;;;10532274;28;20720;-76
2022/03/13 06:05:35;;;;;;;21.13;12.40;;;;;8.40;100713.00;;;;10481260;28;20868;-76
2022/03/13 06:10:36;;;;;;;19.10;14.33;;;;;8.40;100714.00;;;;10525914;28;20192;-75
2022/03/13 06:15:38;;;;;;;19.50;13.87;;;;;8.40;100721.00;;;;10517303;27;20188;-76
2022/03/13 06:20:39;;;;;;;18.90;13.43;;;;;8.40;100716.00;;;;10533006;28;20260;-76
2022/03/13 06:25:43;;;;;;;19.20;13.13;;;;;8.30;100727.00;;;;10533873;27;20219;-76
2022/03/13 06:30:49;;;;;;;20.27;14.70;;;;;8.30;100726.00;;;;10495742;27;20208;-75
2022/03/13 06:35:50;;;;;;;21.33;15.90;;;;;8.30;100724.00;;;;10517861;27;20204;-77
2022/03/13 06:40:52;;;;;;;21.90;15.27;;;;;8.40;100726.00;;;;10495454;28;20220;-77
2022/03/13 06:45:53;;;;;;;22.77;15.50;;;;;8.50;100729.00;;;;10494091;28;20266;-77
2022/03/13 06:50:54;;;;;;;25.40;16.30;;;;;8.60;100726.00;;;;10541786;28;20199;-76
2022/03/13 06:55:56;;;;;;;22.80;15.07;;;;;9.10;100729.00;;;;10506301;28;20660;-76
2022/03/13 07:00:57;;;;;;;19.97;14.57;;;;;9.40;100727.00;;;;10491297;28;20537;-76
2022/03/13 07:05:58;;;;;;;23.53;15.20;;;;;9.70;100722.00;;;;10459137;28;20217;-76
2022/03/13 07:11:01;;;;;;;19.27;14.93;;;;;10.00;100723.00;;;;10458085;28;20212;-76
2022/03/13 07:16:03;;;;;;;23.60;17.17;;;;;10.50;100728.00;;;;10489981;28;20546;-76
2022/03/13 07:21:06;;;;;;;21.67;15.20;;;;;10.60;100722.00;;;;10490670;28;20197;-76
2022/03/13 07:26:07;;;;;;;19.93;14.37;;;;;10.90;100731.00;;;;10490070;28;20220;-76
2022/03/13 07:31:08;;;;;;;19.50;15.20;;;;;11.20;100742.00;;;;10473132;28;20205;-76
2022/03/13 07:36:09;;;;;;;21.30;14.23;;;;;11.50;100729.00;;;;10488805;28;20210;-76
2022/03/13 07:41:11;;;;;;;19.33;13.80;;;;;11.90;100727.00;;;;10476354;28;20209;-76
2022/03/13 07:46:12;;;;;;;23.30;15.20;;;;;12.10;100728.00;;;;10476917;28;20229;-76
2022/03/13 07:51:14;;;;;;;20.80;15.07;;;;;12.40;100733.00;;;;10480662;28;20203;-76
2022/03/13 07:56:19;;;;;;;19.43;14.63;;;;;12.60;100730.00;;;;10495997;28;20218;-76
2022/03/13 08:01:21;;;;;;;17.83;14.47;;;;;12.80;100732.00;;;;10511668;28;20212;-76
2022/03/13 08:06:23;;;;;;;19.50;15.37;;;;;12.90;100728.00;;;;10506091;27;20215;-77
2022/03/13 08:11:24;;;;;;;17.53;12.60;;;;;12.90;100726.00;;;;10489799;28;20230;-76
2022/03/13 08:16:27;;;;;;;15.53;12.70;;;;;13.30;100722.00;;;;10512751;28;20422;-76
2022/03/13 08:21:28;;;;;;;17.63;13.23;;;;;13.70;100715.00;;;;10495023;28;20197;-76
2022/03/13 08:26:30;;;;;;;16.23;12.07;;;;;14.00;100722.00;;;;10495033;28;20228;-76
2022/03/13 08:31:33;;;;;;;16.40;12.40;;;;;14.30;100706.00;;;;10481376;28;20201;-77
2022/03/13 08:36:39;;;;;;;13.47;10.83;;;;;14.50;100701.00;;;;10495586;28;20563;-76
2022/03/13 08:41:41;;;;;;;15.53;11.53;;;;;14.70;100700.00;;;;10490716;28;20244;-76
2022/03/13 08:46:42;;;;;;;10.77;9.40;;;;;14.80;100711.00;;;;10494715;28;20224;-76
2022/03/13 08:51:43;;;;;;;11.03;9.53;;;;;15.20;100698.00;;;;10509102;28;20205;-77
2022/03/13 08:56:45;;;;;;;12.23;10.07;;;;;15.50;100701.00;;;;10494379;28;20207;-76
2022/03/13 09:01:51;;;;;;;12.83;9.67;;;;;15.70;100691.00;;;;10461771;28;20284;-76
2022/03/13 09:06:54;;;;;;;9.50;7.87;;;;;15.90;100689.00;;;;10524583;27;20219;-76
2022/03/13 09:11:56;;;;;;;9.98;8.25;;;;;16.30;100692.00;;;;10497558;28;20832;-76
2022/03/13 09:16:58;;;;;;;10.85;8.02;;;;;16.60;100688.00;;;;10494810;28;20237;-77
2022/03/13 09:21:59;;;;;;;8.18;7.25;;;;;17.00;100696.00;;;;10494253;28;20194;-77
2022/03/13 09:27:00;;;;;;;7.72;6.93;;;;;17.20;100691.00;;;;10495182;28;20680;-76
2022/03/13 09:32:02;;;;;;;7.68;6.88;;;;;17.10;100683.00;;;;10503517;28;20839;-77
2022/03/13 09:37:03;;;;;;;8.70;6.75;;;;;17.00;100686.00;;;;10481299;28;20213;-77
2022/03/13 09:42:05;;;;;;;8.75;7.05;;;;;17.10;100682.00;;;;10527960;28;20710;-77
2022/03/13 09:47:06;;;;;;;6.68;5.93;;;;;17.20;100680.00;;;;10488598;28;20257;-76
2022/03/13 09:52:08;;;;;;;6.25;5.65;;;;;17.70;100670.00;;;;10493466;28;20787;-76
2022/03/13 09:57:09;;;;;;;6.22;5.63;;;;;17.50;100672.00;;;;10455389;28;20239;-76
2022/03/13 10:02:10;;;;;;;8.93;5.20;;;;;17.50;100673.00;;;;10475163;28;20689;-76
2022/03/13 10:07:13;;;;;;;8.27;5.25;;;;;17.80;100669.00;;;;10534251;27;20224;-77
2022/03/13 10:12:18;;;;;;;7.05;5.50;;;;;18.20;100663.00;;;;10489269;28;20232;-76
2022/03/13 10:17:27;;;;;;;7.82;5.40;;;;;18.10;100660.00;;;;10445775;28;20197;-76
2022/03/13 10:22:30;;;;;;;5.63;4.60;;;;;18.00;100667.00;;;;10508737;28;20505;-76
2022/03/13 10:27:33;;;;;;;4.78;4.28;;;;;18.30;100663.00;;;;10507639;28;20687;-76
2022/03/13 10:32:38;;;;;;;5.97;4.95;;;;;18.70;100637.00;;;;10490758;28;20212;-77
2022/03/13 10:37:43;;;;;;;5.35;4.70;;;;;19.00;100633.00;;;;10544190;27;20309;-76
2022/03/13 10:42:44;;;;;;;5.97;5.30;;;;;19.70;100629.00;;;;10474227;28;20205;-77
2022/03/13 10:47:45;;;;;;;5.22;4.72;;;;;19.90;100639.00;;;;10472629;28;20689;-77
2022/03/13 10:52:47;;;;;;;6.00;5.00;;;;;19.80;100636.00;;;;10488875;28;20208;-77
2022/03/13 10:57:53;;;;;;;5.45;4.93;;;;;19.90;100635.00;;;;10490445;28;20683;-76
2022/03/13 11:03:12;;;;;;;5.85;5.25;;;;;20.50;100633.00;;;;10468280;28;20262;-76
2022/03/13 11:08:15;;;;;;;5.38;4.88;;;;;20.50;100627.00;;;;10505979;28;20216;-77
2022/03/13 11:13:18;;;;;;;6.82;4.93;;;;;20.20;100631.00;;;;10525342;28;20193;-77
2022/03/13 11:18:22;;;;;;;7.53;5.30;;;;;19.90;100615.00;;;;10513172;28;20201;-76
2022/03/13 11:23:23;;;;;;;5.10;4.60;;;;;19.70;100620.00;;;;10512034;28;20208;-76
2022/03/13 11:28:27;;;;;;;5.10;4.60;;;;;20.00;100619.00;;;;10465308;28;20215;-77
2022/03/13 11:33:33;;;;;;;4.43;3.85;;;;;20.20;100614.00;;;;10514982;28;20220;-76
2022/03/13 11:38:54;;;;;;;4.18;3.78;;;;;20.60;100616.00;;;;10540517;27;20248;-76
2022/03/13 11:43:57;;;;;;;4.65;3.50;;;;;20.20;100617.00;;;;10520142;27;20412;-76
2022/03/13 11:49:15;;;;;;;4.63;4.13;;;;;20.30;100618.00;;;;10454662;28;20334;-76
2022/03/13 11:54:46;;;;;;;3.58;3.28;;;;;20.90;100612.00;;;;10472974;28;20193;-76
2022/03/13 12:00:10;;;;;;;5.03;3.97;;;;;20.80;100614.00;;;;10454206;28;20193;-76
2022/03/13 12:05:28;;;;;;;3.65;3.33;;;;;20.30;100608.00;;;;10493060;28;20213;-76
2022/03/13 12:10:37;;;;;;;4.18;3.50;;;;;20.10;100606.00;;;;10453894;28;20233;-75
2022/03/13 12:15:40;;;;;;;3.40;3.10;;;;;19.80;100600.00;;;;10508824;28;20204;-75
2022/03/13 12:20:43;;;;;;;3.95;3.53;;;;;19.80;100592.00;;;;10493875;28;20205;-75
2022/03/13 12:25:44;;;;;;;3.15;2.85;;;;;19.90;100593.00;;;;10527042;28;20200;-76
2022/03/13 12:30:46;;;;;;;4.25;2.30;;;;;20.50;100588.00;;;;10523450;28;20204;-76
2022/03/13 12:35:57;;;;;;;3.95;2.90;;;;;20.50;100581.00;;;;10511384;27;20204;-76
2022/03/13 12:41:01;;;;;;;3.92;2.63;;;;;20.40;100588.00;;;;10548743;27;20236;-76
2022/03/13 12:46:02;;;;;;;4.35;3.47;;;;;20.40;100575.00;;;;10492904;28;20245;-76
2022/03/13 12:51:04;;;;;;;2.97;2.72;;;;;20.50;100577.00;;;;10509754;28;20193;-76
2022/03/13 12:56:05;;;;;;;2.20;1.80;;;;;20.60;100564.00;;;;10493924;28;20193;-75
2022/03/13 13:01:21;;;;;;;4.68;2.75;;;;;21.00;100572.00;;;;10510648;28;20192;-76
2022/03/13 13:06:39;;;;;;;2.67;2.20;;;;;21.50;100564.00;;;;10498394;27;20231;-76
2022/03/13 13:11:40;;;;;;;2.53;2.33;;;;;21.60;100560.00;;;;10509144;28;20207;-76
2022/03/13 13:16:41;;;;;;;4.25;2.75;;;;;21.60;100553.00;;;;10451749;28;20213;-76
2022/03/13 13:21:43;;;;;;;2.80;2.25;;;;;22.30;100542.00;;;;10453331;28;20208;-76
2022/03/13 13:26:45;;;;;;;2.38;1.58;;;;;22.30;100550.00;;;;10510255;28;20367;-75
2022/03/13 13:32:24;;;;;;;2.78;1.67;;;;;21.20;100545.00;;;;10477594;28;20208;-76
2022/03/13 13:37:26;;;;;;;2.65;1.95;;;;;20.20;100543.00;;;;10489371;28;20201;-76
2022/03/13 13:42:27;;;;;;;2.42;1.60;;;;;20.10;100546.00;;;;10492676;28;20490;-76
2022/03/13 13:47:28;;;;;;;3.33;1.77;;;;;20.90;100553.00;;;;10482513;28;20269;-76
2022/03/13 13:52:31;;;;;;;1.92;1.70;;;;;21.10;100538.00;;;;10507155;28;20196;-76
2022/03/13 13:57:32;;;;;;;1.90;1.80;;;;;19.80;100549.00;;;;10520674;28;20215;-76
2022/03/13 14:02:33;;;;;;;2.13;1.92;;;;;20.40;100552.00;;;;10508698;28;20200;-76
2022/03/13 14:07:36;;;;;;;2.20;2.00;;;;;20.90;100543.00;;;;10449852;28;20221;-76
2022/03/13 14:12:38;;;;;;;5.38;2.15;;;;;21.90;100524.00;;;;10465387;28;20648;-76
2022/03/13 14:17:39;;;;;;;5.65;2.83;;;;;21.70;100533.00;;;;10449932;28;20197;-76
2022/03/13 14:22:41;;;;;;;2.50;2.30;;;;;20.30;100530.00;;;;10492403;28;20196;-75
2022/03/13 14:27:43;;;;;;;3.33;2.25;;;;;21.90;100519.00;;;;10488728;28;20215;-76
2022/03/13 14:32:44;;;;;;;2.42;2.15;;;;;20.10;100539.00;;;;10489155;28;20743;-75
2022/03/13 14:37:45;;;;;;;3.50;2.40;;;;;19.00;100556.00;;;;10543654;27;20673;-75
2022/03/13 14:43:07;;;;;;;2.50;2.22;;;;;18.40;100547.00;;;;10453995;28;20250;-76
2022/03/13 14:48:09;;;;;;;3.42;2.70;;;;;18.10;100553.00;;;;10474094;28;20541;-76
2022/03/13 14:53:27;;;;;;;5.65;2.55;;;;;17.90;100562.00;;;;10481751;28;20204;-76
2022/03/13 14:58:28;;;;;;;3.78;1.90;;;;;17.80;100572.00;;;;10506128;28;20193;-76
2022/03/13 15:03:30;;;;;;;2.42;2.22;;;;;17.50;100552.00;;;;10464644;28;20296;-76
2022/03/13 15:08:34;;;;;;;2.22;2.03;;;;;17.40;100565.00;;;;10466636;28;20256;-75
2022/03/13 15:13:35;;;;;;;2.63;2.38;;;;;17.30;100567.00;;;;10456714;28;20205;-75
2022/03/13 15:18:36;;;;;;;2.42;2.22;;;;;17.20;100569.00;;;;10457091;28;20196;-76
2022/03/13 15:23:38;;;;;;;3.28;2.22;;;;;16.80;100578.00;;;;10447909;28;20710;-75
2022/03/13 15:28:40;;;;;;;2.50;2.05;;;;;16.50;100576.00;;;;10434794;28;20285;-76
2022/03/13 15:33:41;;;;;;;3.73;3.03;;;;;16.30;100576.00;;;;10491838;28;20231;-75
2022/03/13 15:38:42;;;;;;;3.23;2.93;;;;;16.10;100581.00;;;;10549208;27;20293;-77
2022/03/13 15:43:43;;;;;;;3.37;3.10;;;;;15.90;100592.00;;;;10462264;28;20259;-76
2022/03/13 15:48:44;;;;;;;4.03;3.07;;;;;15.70;100600.00;;;;10503729;28;20228;-76
2022/03/13 15:53:46;;;;;;;4.60;3.30;;;;;15.50;100604.00;;;;10503916;28;20188;-77
2022/03/13 15:58:47;;;;;;;4.23;3.27;;;;;15.20;100593.00;;;;10503362;28;20276;-76
2022/03/13 16:03:49;;;;;;;3.87;3.50;;;;;15.00;100616.00;;;;10515103;28;20203;-76
2022/03/13 16:08:50;;;;;;;3.60;3.20;;;;;14.90;100620.00;;;;10555820;27;20222;-76
2022/03/13 16:13:53;;;;;;;4.30;3.23;;;;;14.90;100621.00;;;;10523961;27;20558;-77
2022/03/13 16:18:55;;;;;;;3.20;2.80;;;;;14.90;100619.00;;;;10540746;27;20204;-77
2022/03/13 16:23:57;;;;;;;3.23;2.50;;;;;14.80;100628.00;;;;10500225;28;20224;-78
2022/03/13 16:28:59;;;;;;;3.73;2.77;;;;;14.70;100627.00;;;;10491002;28;20219;-77
2022/03/13 16:34:00;;;;;;;2.77;2.43;;;;;14.50;100637.00;;;;10499141;27;20192;-77
2022/03/13 16:39:02;;;;;;;3.17;2.10;;;;;14.30;100640.00;;;;10493822;28;20246;-78
2022/03/13 16:44:07;;;;;;;3.30;1.47;;;;;14.00;100644.00;;;;10484959;28;20192;-78
2022/03/13 16:49:09;;;;;;;1.30;1.20;;;;;13.70;100646.00;;;;10482243;28;20237;-78
2022/03/13 16:54:10;;;;;;;2.27;1.37;;;;;13.50;100657.00;;;;10492638;28;20686;-78
2022/03/13 16:59:11;;;;;;;1.90;1.50;;;;;13.40;100657.00;;;;10498506;28;20265;-78
2022/03/13 17:04:12;;;;;;;2.10;1.20;;;;;13.20;100667.00;;;;10535970;28;20204;-78
2022/03/13 17:09:16;;;;;;;1.17;1.07;;;;;13.20;100675.00;;;;10489010;28;20213;-77
2022/03/13 17:14:17;;;;;;;1.30;1.10;;;;;13.10;100676.00;;;;10484666;28;20257;-78
2022/03/13 17:19:19;;;;;;;1.20;1.10;;;;;13.00;100675.00;;;;10502337;28;20203;-75
2022/03/13 17:24:23;;;;;;;2.03;1.60;;;;;12.90;100696.00;;;;10495283;28;20223;-76
2022/03/13 17:29:25;;;;;;;1.30;1.10;;;;;12.80;100707.00;;;;10503035;28;20231;-75
2022/03/13 17:34:27;;;;;;;1.53;1.10;;;;;12.70;100703.00;;;;10465225;28;20197;-77
2022/03/13 17:39:29;;;;;;;2.60;1.57;;;;;12.70;100719.00;;;;10506877;28;20213;-78
2022/03/13 17:44:34;;;;;;;2.20;1.30;;;;;12.60;100718.00;;;;10458232;28;20193;-78
2022/03/13 17:49:36;;;;;;;1.50;1.40;;;;;12.60;100734.00;;;;10473214;28;20220;-76
2022/03/13 17:54:37;;;;;;;1.40;1.20;;;;;12.50;100735.00;;;;10505209;28;20204;-78
2022/03/13 17:59:40;;;;;;;2.07;1.50;;;;;12.50;100732.00;;;;10466518;28;20258;-78
2022/03/13 18:04:41;;;;;;;1.80;1.60;;;;;12.40;100754.00;;;;10512776;27;20196;-77
2022/03/13 18:09:43;;;;;;;1.63;1.53;;;;;12.40;100750.00;;;;10533260;28;20851;-78
2022/03/13 18:14:47;;;;;;;1.97;1.70;;;;;12.30;100755.00;;;;10505460;28;20633;-77
2022/03/13 18:19:58;;;;;;;2.30;2.10;;;;;12.30;100763.00;;;;10516609;27;20204;-79
2022/03/13 18:25:05;;;;;;;2.50;1.80;;;;;12.20;100786.00;;;;10463423;28;20508;-75
2022/03/13 18:30:06;;;;;;;2.27;2.07;;;;;12.10;100797.00;;;;10494214;28;20213;-78
2022/03/13 18:35:08;;;;;;;2.67;1.90;;;;;11.90;100796.00;;;;10494721;28;20205;-78
2022/03/13 18:40:10;;;;;;;3.40;2.20;;;;;11.70;100802.00;;;;10452912;28;1110668;-78
2022/03/13 18:45:12;;;;;;;2.47;1.77;;;;;11.60;100812.00;;;;10486406;28;20196;-77
2022/03/13 18:50:18;;;;;;;2.93;2.27;;;;;11.50;100808.00;;;;10507180;28;20292;-78
2022/03/13 18:55:20;;;;;;;3.30;2.23;;;;;11.40;100824.00;;;;10471068;28;20533;-78
2022/03/13 19:00:22;;;;;;;3.57;2.20;;;;;11.40;100829.00;;;;10518352;28;20189;-78
2022/03/13 19:05:24;;;;;;;4.03;2.80;;;;;11.50;100832.00;;;;10446161;28;20283;-78
2022/03/13 19:10:26;;;;;;;4.23;2.83;;;;;11.50;100827.00;;;;10501041;28;20249;-78
2022/03/13 19:15:28;;;;;;;3.77;2.93;;;;;11.40;100843.00;;;;10507723;28;20184;-78
2022/03/13 19:20:32;;;;;;;4.80;3.20;;;;;11.30;100838.00;;;;10471151;28;20204;-78
2022/03/13 19:25:34;;;;;;;4.00;2.90;;;;;11.20;100854.00;;;;10502211;28;20185;-78
2022/03/13 19:30:36;;;;;;;2.80;2.47;;;;;11.10;100853.00;;;;10485495;28;20683;-78
2022/03/13 19:35:38;;;;;;;3.30;2.40;;;;;11.00;100874.00;;;;10451789;28;20200;-77
2022/03/13 19:40:40;;;;;;;3.03;2.40;;;;;11.00;100879.00;;;;10472380;28;20282;-78
2022/03/13 19:45:42;;;;;;;2.40;2.10;;;;;11.00;100892.00;;;;10526756;28;20189;-78
2022/03/13 19:50:45;;;;;;;2.80;2.60;;;;;10.90;100906.00;;;;10525676;28;20205;-77
2022/03/13 19:55:47;;;;;;;2.77;2.50;;;;;10.80;100906.00;;;;10516404;28;20196;-78
2022/03/13 20:00:49;;;;;;;3.63;2.57;;;;;10.70;100912.00;;;;10510919;28;20262;-77
2022/03/13 20:05:52;;;;;;;3.70;3.30;;;;;10.60;100921.00;;;;10528006;28;20204;-78
2022/03/13 20:10:55;;;;;;;3.00;2.63;;;;;10.50;100921.00;;;;10492235;28;20433;-77
2022/03/13 20:16:00;;;;;;;2.73;2.50;;;;;10.50;100937.00;;;;10493518;28;20193;-78
2022/03/13 20:21:03;;;;;;;4.43;2.67;;;;;10.50;100937.00;;;;10492056;28;20192;-78
2022/03/13 20:26:05;;;;;;;4.20;2.77;;;;;10.50;100939.00;;;;10508895;28;20245;-77
2022/03/13 20:31:08;;;;;;;3.17;2.60;;;;;10.50;100944.00;;;;10486430;28;20215;-77
2022/03/13 20:36:10;;;;;;;3.30;3.00;;;;;10.50;100944.00;;;;10490686;28;20238;-77
2022/03/13 20:41:12;;;;;;;2.67;2.47;;;;;10.50;100951.00;;;;10507575;28;20220;-77
2022/03/13 20:46:14;;;;;;;2.53;2.30;;;;;10.50;100947.00;;;;10473218;28;20671;-77
2022/03/13 20:51:16;;;;;;;4.47;3.10;;;;;10.50;100948.00;;;;10503940;28;20261;-77
2022/03/13 20:56:18;;;;;;;4.30;3.00;;;;;10.50;100954.00;;;;10466410;28;20208;-77
2022/03/13 21:01:20;;;;;;;3.43;2.97;;;;;10.50;100961.00;;;;10513291;28;20200;-77
2022/03/13 21:06:22;;;;;;;2.90;2.47;;;;;10.50;100978.00;;;;10465245;28;20186;-77
2022/03/13 21:11:39;;;;;;;2.33;2.13;;;;;10.50;100975.00;;;;10482193;28;20696;-77
2022/03/13 21:16:44;;;;;;;2.77;2.37;;;;;10.50;100988.00;;;;10479954;28;20212;-77
2022/03/13 21:21:50;;;;;;;2.73;2.53;;;;;10.50;100989.00;;;;10473953;28;20190;-77
2022/03/13 21:26:53;;;;;;;2.63;2.43;;;;;10.40;100993.00;;;;10489602;28;20672;-77
2022/03/13 21:31:56;;;;;;;3.23;2.50;;;;;10.50;100995.00;;;;10522924;28;20458;-77
2022/03/13 21:36:58;;;;;;;2.63;2.40;;;;;10.50;101000.00;;;;10522798;28;20208;-77
2022/03/13 21:42:00;;;;;;;4.63;3.13;;;;;10.40;101000.00;;;;10489093;28;20220;-77
2022/03/13 21:47:05;;;;;;;3.27;2.40;;;;;10.40;101003.00;;;;10505020;28;20209;-77
2022/03/13 21:52:08;;;;;;;2.40;2.20;;;;;10.30;101002.00;;;;10504727;28;20220;-78
2022/03/13 21:57:12;;;;;;;2.50;2.00;;;;;10.30;101023.00;;;;10460627;28;20182;-78
2022/03/13 22:02:14;;;;;;;3.10;2.03;;;;;10.30;101031.00;;;;10513872;28;20201;-78
2022/03/13 22:07:18;;;;;;;2.20;2.00;;;;;10.30;101031.00;;;;10469956;28;20244;-78
2022/03/13 22:12:32;;;;;;;4.23;2.30;;;;;10.30;101022.00;;;;10482508;28;20230;-78
2022/03/13 22:17:36;;;;;;;3.77;2.30;;;;;10.20;101040.00;;;;10502228;28;20193;-78
2022/03/13 22:22:38;;;;;;;4.60;3.00;;;;;10.20;101026.00;;;;10502159;28;20192;-78
2022/03/13 22:27:40;;;;;;;6.33;2.60;;;;;10.10;101034.00;;;;10520382;28;20193;-77
2022/03/13 22:32:42;;;;;;;3.07;2.20;;;;;10.10;101044.00;;;;10494198;28;20610;-78
2022/03/13 22:37:45;;;;;;;2.57;1.93;;;;;10.10;101056.00;;;;10484778;28;20720;-78
2022/03/13 22:42:47;;;;;;;3.50;2.10;;;;;10.10;101050.00;;;;10468740;28;20197;-78
2022/03/13 22:47:49;;;;;;;4.13;3.13;;;;;10.20;101051.00;;;;10517280;28;20205;-78
2022/03/13 22:52:50;;;;;;;2.93;2.43;;;;;10.20;101065.00;;;;10501089;28;20181;-78
2022/03/13 22:57:55;;;;;;;3.13;1.90;;;;;10.20;101080.00;;;;10463795;28;20200;-78
2022/03/13 23:02:57;;;;;;;2.20;1.97;;;;;10.30;101070.00;;;;10499529;28;20197;-78
2022/03/13 23:07:59;;;;;;;2.43;2.20;;;;;10.30;101069.00;;;;10484275;28;20304;-77
2022/03/13 23:13:02;;;;;;;1.97;1.77;;;;;10.30;101086.00;;;;10509800;28;20242;-78
2022/03/13 23:18:08;;;;;;;2.63;1.97;;;;;10.30;101095.00;;;;10493883;28;20196;-78
2022/03/13 23:23:11;;;;;;;2.03;1.77;;;;;10.30;101094.00;;;;10490509;28;20246;-78
2022/03/13 23:28:13;;;;;;;2.40;2.00;;;;;10.30;101110.00;;;;10491569;28;20201;-79
2022/03/13 23:33:15;;;;;;;2.33;1.80;;;;;10.20;101117.00;;;;10506274;28;20250;-78
2022/03/13 23:38:17;;;;;;;2.50;1.93;;;;;10.20;101115.00;;;;10491423;28;20229;-78
2022/03/13 23:43:19;;;;;;;2.30;2.03;;;;;10.10;101116.00;;;;10508161;28;20193;-78
2022/03/13 23:48:21;;;;;;;2.50;2.30;;;;;10.00;101131.00;;;;10468764;28;20205;-78
2022/03/13 23:53:26;;;;;;;2.07;1.80;;;;;10.00;101135.00;;;;10491501;28;20185;-78
2022/03/13 23:58:30;;;;;;;2.17;1.97;;;;;10.00;101152.00;;;;10504396;28;20193;-78
